Historie AUP a zpráv METAR Praha-Ruzyně z 12:00 UTC

Datum: 17-10-2018 / Vyber datum:
LKPR 171200Z VRB03KT CAVOK 17/08 Q1019 NOSIG
Prostor Spodní hranice Horní hranice Od Do
TRA10 GND 1000FT/AGL 14:00 19:00
TRA11 5000FT/AMSL F125 10:00 19:00
TRA12 GND F125 10:00 19:00
TRA13 GND F125 10:00 19:00
TRA14 GND F125 10:00 19:00
TRA15 300FT/AGL F125 13:00 16:05
TRA16 5000FT/AMSL F125 13:00 16:05
TRA17 GND 1000FT/AGL 10:45 16:05
TRA6 GND F095 07:00 14:00
TRA61 GND 3000FT/AMSL 07:00 16:05
TRA62 3000FT/AMSL F245 07:00 16:05
TRA76 1000FT/AGL F075 15:00 20:00
TRA77 1000FT/AGL F245 07:00 20:00
TRA78 1000FT/AGL F245 07:00 20:00
TRA79 F075 F245 07:00 20:00
TSA1 GND F125 13:00 14:00
TSA2A GND F125 06:00 15:10
TSA2B GND F185 06:00 14:10
TSA20 300FT/AGL 1000FT/AGL 07:00 16:05
TSA26 300FT/AGL 1000FT/AGL 07:00 16:05
TSA27 300FT/AGL 1000FT/AGL 07:00 16:05
TSA3A GND F285 07:00 23:30
TSA5B GND F135 07:00 21:00